createdAt,value
2022-09-30T00:05:02.411Z,1.67
2022-09-30T00:10:07.415Z,1.55
2022-09-30T00:15:11.078Z,2.17
2022-09-30T00:20:15.918Z,2.25
2022-09-30T00:25:18.711Z,2.10
2022-09-30T00:30:21.492Z,2.25
2022-09-30T00:35:25.615Z,2.10
2022-09-30T00:40:30.160Z,2.10
2022-09-30T00:45:33.876Z,2.00
2022-09-30T00:50:42.462Z,1.77
2022-09-30T00:55:51.197Z,1.60
2022-09-30T01:00:54.059Z,1.60
2022-09-30T01:05:58.270Z,1.45
2022-09-30T01:11:05.836Z,1.50
2022-09-30T01:16:27.254Z,1.52
2022-09-30T01:21:56.147Z,1.60
2022-09-30T01:27:31.592Z,1.70
2022-09-30T01:33:09.672Z,1.73
2022-09-30T01:38:21.867Z,1.63
2022-09-30T01:43:35.088Z,1.88
2022-09-30T01:48:47.711Z,1.85
2022-09-30T01:53:57.509Z,1.90
2022-09-30T01:59:05.909Z,1.50
2022-09-30T02:04:13.722Z,1.30
2022-09-30T02:09:22.933Z,1.40
2022-09-30T02:14:30.193Z,1.30
2022-09-30T02:19:39.119Z,1.60
2022-09-30T02:24:46.018Z,1.30
2022-09-30T02:29:54.512Z,1.30
2022-09-30T02:35:01.863Z,1.63
2022-09-30T02:40:10.360Z,1.40
2022-09-30T02:45:16.511Z,1.50
2022-09-30T02:50:25.696Z,1.55
2022-09-30T02:55:36.110Z,1.50
2022-09-30T03:00:39.243Z,1.20
2022-09-30T03:05:42.381Z,1.48
2022-09-30T03:10:50.878Z,2.30
2022-09-30T03:16:10.792Z,1.30
2022-09-30T03:21:31.026Z,1.50
2022-09-30T03:26:41.944Z,1.25
2022-09-30T03:31:53.477Z,1.23
2022-09-30T03:37:04.500Z,1.30
2022-09-30T03:42:19.366Z,1.50
2022-09-30T03:47:27.872Z,1.58
2022-09-30T03:52:33.475Z,1.20
2022-09-30T03:57:37.588Z,1.10
2022-09-30T04:02:40.365Z,1.38
2022-09-30T04:07:43.121Z,1.10
2022-09-30T04:12:47.323Z,1.08
2022-09-30T04:17:50.214Z,1.15
2022-09-30T04:22:53.022Z,1.30
2022-09-30T04:27:57.897Z,1.42
2022-09-30T04:33:00.719Z,1.48
2022-09-30T04:38:06.894Z,1.40
2022-09-30T04:43:11.013Z,1.20
2022-09-30T04:48:13.791Z,1.10
2022-09-30T04:53:16.853Z,1.13
2022-09-30T04:58:21.003Z,1.15
2022-09-30T05:03:23.762Z,1.10
2022-09-30T05:08:26.652Z,1.00
2022-09-30T05:13:35.111Z,1.00
2022-09-30T05:18:38.308Z,0.93
2022-09-30T05:23:41.040Z,1.05
2022-09-30T05:28:45.205Z,1.10
2022-09-30T05:33:48.068Z,0.95
2022-09-30T05:38:51.948Z,0.88
2022-09-30T05:43:56.137Z,0.98
2022-09-30T05:48:58.939Z,0.82
2022-09-30T05:54:01.766Z,0.93
2022-09-30T05:59:06.150Z,1.20
2022-09-30T06:04:08.929Z,1.10
2022-09-30T06:09:11.831Z,1.13
2022-09-30T06:14:16.950Z,1.15
2022-09-30T06:19:19.791Z,1.17
2022-09-30T06:24:22.590Z,1.17
2022-09-30T06:29:26.839Z,1.30
2022-09-30T06:34:29.651Z,2.63
2022-09-30T06:39:32.493Z,1.35
2022-09-30T06:44:48.351Z,1.40
2022-09-30T06:49:58.836Z,1.13
2022-09-30T06:55:01.656Z,1.10
2022-09-30T07:00:06.988Z,0.98
2022-09-30T07:05:10.324Z,1.10
2022-09-30T07:10:13.152Z,1.25
2022-09-30T07:15:17.603Z,1.20
2022-09-30T07:20:20.433Z,1.80
2022-09-30T07:25:23.248Z,2.10
2022-09-30T07:30:27.663Z,1.83
2022-09-30T07:35:31.099Z,2.10
2022-09-30T07:40:33.915Z,2.60
2022-09-30T07:45:38.973Z,1.95
2022-09-30T07:50:45.422Z,2.25
2022-09-30T07:55:48.242Z,2.00
2022-09-30T08:00:52.430Z,1.70
2022-09-30T08:05:55.308Z,2.35
2022-09-30T08:11:00.115Z,1.65
2022-09-30T08:16:04.685Z,2.10
2022-09-30T08:21:08.228Z,1.87
2022-09-30T08:26:13.500Z,1.58
2022-09-30T08:31:19.701Z,1.40
2022-09-30T08:36:24.149Z,1.70
2022-09-30T08:41:52.400Z,1.67
2022-09-30T08:47:04.312Z,0.82
2022-09-30T08:52:24.495Z,1.10
2022-09-30T08:57:38.275Z,1.20
2022-09-30T09:02:47.344Z,1.55
2022-09-30T09:08:00.416Z,1.33
2022-09-30T09:13:11.031Z,1.30
2022-09-30T09:18:39.323Z,1.10
2022-09-30T09:23:42.512Z,1.10
2022-09-30T09:28:54.642Z,0.90
2022-09-30T09:34:03.144Z,1.02
2022-09-30T09:39:23.096Z,0.93
2022-09-30T09:44:33.196Z,1.00
2022-09-30T09:49:41.090Z,0.80
2022-09-30T09:54:46.725Z,0.80
2022-09-30T09:59:58.405Z,1.17
2022-09-30T10:05:03.910Z,0.98
2022-09-30T10:10:10.505Z,1.13
2022-09-30T10:15:21.877Z,1.10
2022-09-30T10:20:30.619Z,0.95
2022-09-30T10:25:33.517Z,1.00
2022-09-30T10:30:44.377Z,1.00
2022-09-30T10:36:04.181Z,1.00
2022-09-30T10:41:07.551Z,1.20
2022-09-30T10:46:27.429Z,1.00
2022-09-30T10:51:36.201Z,1.23
2022-09-30T10:56:42.783Z,1.13
2022-09-30T11:01:52.585Z,1.20
2022-09-30T11:07:11.381Z,1.20
2022-09-30T11:12:20.937Z,1.55
2022-09-30T11:17:33.985Z,1.60
2022-09-30T11:22:46.798Z,1.50
2022-09-30T11:28:12.537Z,1.40
2022-09-30T11:33:36.128Z,1.20
2022-09-30T11:38:59.702Z,1.90
2022-09-30T11:44:15.761Z,1.95
2022-09-30T11:49:38.647Z,1.88
2022-09-30T11:55:00.311Z,1.70
2022-09-30T12:00:07.698Z,1.60
2022-09-30T12:05:15.401Z,1.70
2022-09-30T12:10:24.131Z,1.40
2022-09-30T12:15:28.425Z,1.70
2022-09-30T12:20:35.164Z,1.20
2022-09-30T12:25:43.309Z,1.08
2022-09-30T12:30:48.418Z,1.33
2022-09-30T12:36:28.278Z,1.17
2022-09-30T12:41:49.635Z,1.17
2022-09-30T12:47:14.046Z,1.35
2022-09-30T12:52:21.386Z,0.90
2022-09-30T12:57:29.784Z,0.90
2022-09-30T13:02:36.927Z,1.00
2022-09-30T13:08:11.192Z,0.90
2022-09-30T13:13:24.626Z,0.90
2022-09-30T13:19:00.825Z,0.80
2022-09-30T13:24:05.676Z,0.98
2022-09-30T13:34:32.919Z,0.80
2022-09-30T13:39:47.864Z,0.60
2022-09-30T13:45:01.762Z,0.60
2022-09-30T13:50:16.067Z,0.70
2022-09-30T13:55:22.694Z,0.60
2022-09-30T14:00:27.794Z,0.90
2022-09-30T14:05:57.751Z,0.70
2022-09-30T14:11:12.974Z,0.70
2022-09-30T14:16:39.790Z,0.70
2022-09-30T14:21:48.545Z,0.50
2022-09-30T14:27:33.209Z,0.70
2022-09-30T14:32:44.499Z,0.70
2022-09-30T14:37:52.589Z,1.13
2022-09-30T14:42:59.850Z,0.73
2022-09-30T14:48:06.483Z,0.90
2022-09-30T14:53:25.602Z,0.57
2022-09-30T14:58:30.542Z,0.70
2022-09-30T15:03:37.149Z,0.70
2022-09-30T15:08:41.416Z,0.82
2022-09-30T15:13:44.239Z,0.90
2022-09-30T15:18:48.017Z,0.90
2022-09-30T15:23:54.427Z,0.80
2022-09-30T15:28:57.160Z,0.90
2022-09-30T15:34:08.732Z,0.68
2022-09-30T15:39:50.478Z,0.70
2022-09-30T15:44:53.496Z,0.73
2022-09-30T15:49:56.514Z,1.10
2022-09-30T15:55:00.764Z,1.00
2022-09-30T16:00:08.020Z,0.77
2022-09-30T16:05:10.832Z,0.93
2022-09-30T16:10:22.150Z,2.13
2022-09-30T16:15:25.319Z,1.40
2022-09-30T16:20:28.075Z,2.00
2022-09-30T16:25:33.921Z,3.33
2022-09-30T16:30:38.826Z,2.38
2022-09-30T16:35:44.170Z,5.35
2022-09-30T16:40:48.663Z,2.85
2022-09-30T16:45:52.009Z,3.70
2022-09-30T16:51:02.519Z,2.00
2022-09-30T16:56:07.066Z,2.25
2022-09-30T17:01:19.851Z,2.03
2022-09-30T17:06:30.551Z,2.50
2022-09-30T17:11:38.530Z,1.52
2022-09-30T17:16:42.189Z,2.88
2022-09-30T17:21:44.926Z,2.00
2022-09-30T17:26:49.674Z,2.65
2022-09-30T17:31:53.802Z,2.60
2022-09-30T17:36:58.251Z,6.43
2022-09-30T17:42:20.409Z,2.40
2022-09-30T17:47:24.163Z,2.00
2022-09-30T17:52:27.267Z,2.55
2022-09-30T17:57:40.138Z,1.65
2022-09-30T18:02:54.922Z,2.80
2022-09-30T18:07:58.517Z,9.77
2022-09-30T18:13:03.198Z,9.77
2022-09-30T18:18:06.198Z,6.97
2022-09-30T18:23:09.339Z,7.30
2022-09-30T18:28:14.107Z,9.65
2022-09-30T18:33:17.438Z,9.80
2022-09-30T18:38:20.302Z,7.80
2022-09-30T18:43:24.416Z,8.25
2022-09-30T18:48:27.431Z,7.80
2022-09-30T18:53:34.425Z,8.57
2022-09-30T18:58:39.390Z,4.95
2022-09-30T19:03:42.243Z,3.63
2022-09-30T19:08:45.140Z,3.92
2022-09-30T19:13:56.514Z,4.32
2022-09-30T19:19:04.507Z,5.30
2022-09-30T19:24:09.146Z,8.85
2022-09-30T19:29:13.619Z,8.77
2022-09-30T19:34:29.652Z,8.27
2022-09-30T19:39:45.088Z,6.72
2022-09-30T19:44:51.978Z,6.65
2022-09-30T19:49:55.280Z,5.93
2022-09-30T19:55:09.991Z,6.72
2022-09-30T20:00:17.887Z,4.00
2022-09-30T20:05:20.679Z,6.65
2022-09-30T20:10:24.030Z,8.07
2022-09-30T20:15:46.397Z,10.18
2022-09-30T20:20:49.581Z,6.50
2022-09-30T20:25:53.073Z,5.57
2022-09-30T20:30:57.249Z,4.40
2022-09-30T20:36:01.063Z,4.90
2022-09-30T20:41:04.649Z,5.53
2022-09-30T20:46:08.945Z,5.63
2022-09-30T20:51:15.637Z,5.40
2022-09-30T20:56:19.748Z,3.25
2022-09-30T21:01:24.917Z,5.25
2022-09-30T21:11:31.359Z,7.55
2022-09-30T21:16:35.860Z,4.85
2022-09-30T21:21:38.721Z,4.83
2022-09-30T21:26:41.531Z,5.60
2022-09-30T21:31:46.047Z,6.13
2022-09-30T21:36:49.244Z,5.57
2022-09-30T21:41:52.034Z,4.72
2022-09-30T21:46:56.261Z,6.28
2022-09-30T21:51:59.080Z,5.70
2022-09-30T21:57:01.909Z,5.47
2022-09-30T22:02:06.631Z,5.60
2022-09-30T22:07:09.531Z,5.32
2022-09-30T22:12:12.290Z,5.10
2022-09-30T22:17:16.871Z,5.03
2022-09-30T22:22:19.631Z,4.67
2022-09-30T22:27:22.411Z,5.22
2022-09-30T22:32:26.556Z,5.13
2022-09-30T22:38:01.260Z,4.47
2022-09-30T22:43:04.957Z,5.35
2022-09-30T22:48:09.123Z,5.35
2022-09-30T22:53:11.911Z,5.20
2022-09-30T22:58:15.411Z,4.72
2022-09-30T23:03:19.576Z,4.43
2022-09-30T23:08:22.391Z,5.32
2022-09-30T23:13:26.108Z,4.18
2022-09-30T23:18:33.277Z,4.82
2022-09-30T23:23:37.469Z,4.70
2022-09-30T23:28:41.337Z,4.90
2022-09-30T23:33:47.967Z,4.78
2022-09-30T23:38:50.735Z,4.95
2022-09-30T23:43:53.520Z,3.80
2022-09-30T23:48:57.782Z,3.88
2022-09-30T23:54:02.296Z,4.32
2022-09-30T23:59:05.098Z,3.87
